Time;durP1;ratioP1;P1;durP2;ratioP2;P2;SDS_P1;SDS_P2;PMS_P1;PMS_P2;Temp;Humidity;BMP_temperature;BMP_pressure;BME280_temperature;BME280_humidity;BME280_pressure;Samples;Min_cycle;Max_cycle;Signal;HPM_P1;HPM_P2
2022/08/22 00:01:23;;;;;;;17.42;2.90;;;14.50;99.90;;;;;;5074788;28;20468;-74
2022/08/22 00:04:00;;;;;;;18.58;3.00;;;14.50;99.90;;;;;;5074474;28;20059;-73
2022/08/22 00:06:47;;;;;;;15.68;3.22;;;14.50;99.90;;;;;;5056645;28;20048;-74
2022/08/22 00:09:28;;;;;;;14.55;2.90;;;14.40;99.90;;;;;;5073748;28;20045;-75
2022/08/22 00:12:13;;;;;;;16.98;3.08;;;14.40;99.90;;;;;;5074698;28;20056;-74
2022/08/22 00:14:57;;;;;;;16.00;3.00;;;14.40;99.90;;;;;;5074459;28;20041;-75
2022/08/22 00:17:35;;;;;;;15.50;2.88;;;14.30;99.90;;;;;;5074600;28;20471;-76
2022/08/22 00:20:14;;;;;;;;;;;14.30;99.90;;;;;;5075293;28;20051;-75
2022/08/22 00:22:49;;;;;;;11.10;2.95;;;14.00;99.90;;;;;;5055930;28;19920;-74
2022/08/22 00:25:54;;;;;;;17.98;3.13;;;14.10;99.90;;;;;;5040105;28;20052;-75
2022/08/22 00:28:35;;;;;;;12.75;2.58;;;14.10;99.90;;;;;;5073158;28;20311;-73
2022/08/22 00:31:20;;;;;;;14.73;2.65;;;14.30;99.90;;;;;;5056961;28;20072;-74
2022/08/22 00:34:01;;;;;;;13.25;3.10;;;14.70;99.90;;;;;;5074259;28;20510;-73
2022/08/22 00:36:42;;;;;;;14.45;3.20;;;14.10;99.90;;;;;;5056074;28;20056;-75
2022/08/22 00:39:20;;;;;;;16.80;3.10;;;14.10;99.90;;;;;;5074350;28;20049;-74
2022/08/22 00:42:30;;;;;;;19.48;3.08;;;14.00;99.90;;;;;;5055918;28;20049;-73
2022/08/22 00:45:41;;;;;;;14.80;2.85;;;14.00;99.90;;;;;;5056587;28;20382;-74
2022/08/22 00:48:40;;;;;;;14.82;3.10;;;14.00;99.90;;;;;;5055290;28;20391;-73
2022/08/22 00:51:21;;;;;;;15.57;2.90;;;14.00;99.90;;;;;;5057008;28;20060;-75
2022/08/22 00:53:55;;;;;;;19.65;3.50;;;13.90;99.90;;;;;;5074502;28;20049;-73
2022/08/22 00:56:54;;;;;;;11.10;2.55;;;13.90;99.90;;;;;;5072933;28;20044;-74
2022/08/22 00:59:27;;;;;;;13.85;3.03;;;13.90;99.90;;;;;;5023522;28;20474;-73
2022/08/22 01:02:19;;;;;;;12.57;2.83;;;13.90;99.90;;;;;;5075943;28;20055;-76
2022/08/22 01:05:28;;;;;;;16.45;3.08;;;13.80;99.90;;;;;;5077523;28;20051;-74
2022/08/22 01:08:26;;;;;;;13.30;3.33;;;13.80;99.90;;;;;;5078006;28;20040;-73
2022/08/22 01:11:21;;;;;;;13.65;3.53;;;13.70;99.90;;;;;;5077575;28;20052;-74
2022/08/22 01:14:26;;;;;;;18.15;3.00;;;13.70;99.90;;;;;;5060035;28;20518;-76
2022/08/22 01:17:25;;;;;;;16.40;2.95;;;13.70;99.90;;;;;;5076469;28;20055;-74
2022/08/22 01:20:35;;;;;;;17.10;3.38;;;13.60;99.90;;;;;;5060230;28;20467;-75
2022/08/22 01:23:14;;;;;;;19.25;3.40;;;13.60;99.90;;;;;;5030444;28;20049;-74
2022/08/22 01:26:03;;;;;;;16.60;3.53;;;13.60;99.90;;;;;;5077354;28;20470;-73
2022/08/22 01:28:49;;;;;;;18.63;3.45;;;13.60;99.90;;;;;;5076313;28;20063;-74
2022/08/22 01:31:41;;;;;;;18.23;3.70;;;13.60;99.90;;;;;;5059485;28;20408;-76
2022/08/22 01:34:35;;;;;;;15.25;2.92;;;13.70;99.90;;;;;;5077230;28;20475;-75
2022/08/22 01:37:11;;;;;;;14.93;3.10;;;13.60;99.90;;;;;;5076212;28;20045;-76
2022/08/22 01:40:08;;;;;;;17.58;3.05;;;13.70;99.90;;;;;;5077236;28;20067;-74
2022/08/22 01:43:05;;;;;;;15.00;3.33;;;13.70;99.90;;;;;;5076078;28;20045;-74
2022/08/22 01:45:35;;;;;;;18.77;3.70;;;13.60;99.90;;;;;;5076947;28;20063;-73
2022/08/22 01:48:21;;;;;;;16.45;3.25;;;13.60;99.90;;;;;;5076205;28;20044;-74
2022/08/22 01:51:01;;;;;;;18.05;3.47;;;13.60;99.90;;;;;;5076806;28;20060;-75
2022/08/22 01:53:42;;;;;;;15.00;3.15;;;13.60;99.90;;;;;;5077130;28;20464;-76
2022/08/22 01:56:22;;;;;;;12.23;3.15;;;13.60;99.90;;;;;;5075878;28;20378;-75
2022/08/22 01:59:00;;;;;;;15.75;3.78;;;13.50;99.90;;;;;;5077322;28;20048;-74
2022/08/22 02:01:40;;;;;;;12.05;3.60;;;13.50;99.90;;;;;;5075872;28;20048;-72
2022/08/22 02:04:08;;;;;;;19.05;3.55;;;13.60;99.90;;;;;;5076949;28;20044;-74
2022/08/22 02:07:07;;;;;;;16.08;3.25;;;13.50;99.90;;;;;;5076884;28;20462;-75
2022/08/22 02:09:45;;;;;;;19.65;3.72;;;13.50;99.90;;;;;;5075310;28;20056;-74
2022/08/22 02:12:34;;;;;;;14.80;3.33;;;13.40;99.90;;;;;;5075524;28;20379;-73
2022/08/22 02:15:13;;;;;;;17.33;3.90;;;13.40;99.90;;;;;;5075549;28;20040;-76
2022/08/22 02:18:11;;;;;;;16.38;3.95;;;13.40;99.90;;;;;;5076415;28;20119;-74
2022/08/22 02:20:47;;;;;;;16.70;3.72;;;13.30;99.90;;;;;;5076664;28;20463;-76
2022/08/22 02:23:34;;;;;;;13.10;3.20;;;13.20;99.90;;;;;;5075235;28;20044;-74
2022/08/22 02:26:01;;;;;;;14.20;3.30;;;13.20;99.90;;;;;;5076053;28;20037;-74
2022/08/22 02:28:59;;;;;;;15.68;3.80;;;13.20;99.90;;;;;;5074862;28;20055;-74
2022/08/22 02:31:52;;;;;;;16.95;3.47;;;13.10;99.90;;;;;;5075978;28;20385;-75
2022/08/22 02:34:35;;;;;;;17.88;3.83;;;13.20;99.90;;;;;;5076041;28;20375;-76
2022/08/22 02:37:03;;;;;;;21.58;3.60;;;13.10;99.90;;;;;;5074681;28;20048;-73
2022/08/22 02:40:03;;;;;;;17.30;3.10;;;13.20;99.90;;;;;;5058913;28;20056;-74
2022/08/22 02:43:01;;;;;;;16.27;3.40;;;13.20;99.90;;;;;;5044891;28;20478;-74
2022/08/22 02:45:51;;;;;;;13.93;3.25;;;13.20;99.90;;;;;;5075684;28;20356;-73
2022/08/22 02:48:37;;;;;;;15.57;3.30;;;13.20;99.90;;;;;;5057219;28;20418;-76
2022/08/22 02:51:10;;;;;;;18.30;3.30;;;13.20;99.90;;;;;;5075434;28;20037;-75
2022/08/22 02:53:44;;;;;;;16.13;3.17;;;13.20;99.90;;;;;;5075513;28;20041;-74
2022/08/22 02:56:34;;;;;;;12.82;3.03;;;13.20;99.90;;;;;;5074597;28;20036;-75
2022/08/22 02:59:20;;;;;;;12.05;3.28;;;13.20;99.90;;;;;;5075533;28;20123;-73
2022/08/22 03:01:48;;;;;;;15.65;3.38;;;13.20;99.90;;;;;;5074891;28;20045;-75
2022/08/22 03:04:24;;;;;;;;;;;13.10;99.90;;;;;;5058827;28;20451;-73
2022/08/22 03:07:11;;;;;;;14.57;3.45;;;13.10;99.90;;;;;;5075648;28;19927;-74
2022/08/22 03:10:00;;;;;;;14.30;3.80;;;13.10;99.90;;;;;;5074062;28;20047;-73
2022/08/22 03:12:39;;;;;;;12.50;3.63;;;13.10;99.90;;;;;;5075467;28;20289;-72
2022/08/22 03:15:16;;;;;;;14.65;3.20;;;13.10;99.90;;;;;;5074218;28;20056;-73
2022/08/22 03:17:50;;;;;;;14.13;3.47;;;13.10;99.90;;;;;;5075267;28;20040;-73
2022/08/22 03:20:41;;;;;;;10.68;2.88;;;13.10;99.90;;;;;;5057628;28;20048;-75
2022/08/22 03:23:45;;;;;;;15.52;3.50;;;13.10;99.90;;;;;;5073835;28;20086;-75
2022/08/22 03:26:21;;;;;;;16.08;3.85;;;13.10;99.90;;;;;;5074892;28;20067;-73
2022/08/22 03:28:57;;;;;;;13.68;3.28;;;13.00;99.90;;;;;;5073894;28;20349;-74
2022/08/22 03:31:29;;;;;;;16.17;3.60;;;13.00;99.90;;;;;;5057626;28;20052;-74
2022/08/22 03:34:22;;;;;;;12.55;3.60;;;13.00;99.90;;;;;;5041295;28;20045;-74
2022/08/22 03:36:58;;;;;;;12.18;3.25;;;13.00;99.90;;;;;;5073831;28;20044;-75
2022/08/22 03:39:55;;;;;;;13.60;3.35;;;13.00;99.90;;;;;;5057889;28;20044;-74
2022/08/22 03:42:38;;;;;;;15.32;3.70;;;12.90;99.90;;;;;;5052873;28;20060;-74
2022/08/22 03:45:27;;;;;;;17.65;3.72;;;12.90;99.90;;;;;;5074633;28;20063;-72
2022/08/22 03:47:55;;;;;;;17.17;3.75;;;12.90;99.90;;;;;;5057785;28;20476;-74
2022/08/22 03:50:41;;;;;;;21.08;3.97;;;12.80;99.90;;;;;;5073631;28;20475;-74
2022/08/22 03:53:09;;;;;;;18.05;3.88;;;12.80;99.90;;;;;;5057192;28;20040;-75
2022/08/22 03:55:49;;;;;;;11.95;3.60;;;12.80;99.90;;;;;;5073449;28;20341;-75
2022/08/22 03:58:28;;;;;;;12.18;4.05;;;12.80;99.90;;;;;;5074666;28;20044;-76
2022/08/22 04:00:58;;;;;;;15.10;3.90;;;12.80;99.90;;;;;;5074661;28;20459;-73
2022/08/22 04:03:40;;;;;;;17.40;4.13;;;12.80;99.90;;;;;;5056218;28;20048;-73
2022/08/22 04:06:22;;;;;;;13.02;3.83;;;12.70;99.90;;;;;;5074464;28;20051;-74
2022/08/22 04:08:57;;;;;;;14.57;4.25;;;12.70;99.90;;;;;;5056481;28;20059;-74
2022/08/22 04:11:40;;;;;;;15.70;4.20;;;12.60;99.90;;;;;;5074561;28;20052;-74
2022/08/22 04:14:24;;;;;;;18.65;4.55;;;12.60;99.90;;;;;;5074689;28;20047;-74
2022/08/22 04:17:22;;;;;;;19.08;4.05;;;12.60;99.90;;;;;;5055921;28;20342;-74
2022/08/22 04:20:19;;;;;;;18.75;4.53;;;12.60;99.90;;;;;;5057057;28;20056;-73
2022/08/22 04:22:58;;;;;;;18.17;4.30;;;12.60;99.90;;;;;;5038367;28;20048;-76
2022/08/22 04:25:58;;;;;;;16.67;4.32;;;12.50;99.90;;;;;;5057264;28;20056;-73
2022/08/22 04:28:37;;;;;;;22.85;4.57;;;12.50;99.90;;;;;;5070484;28;20067;-76
2022/08/22 04:31:09;;;;;;;13.40;4.20;;;12.50;99.90;;;;;;5074286;28;20048;-74
2022/08/22 04:33:46;;;;;;;14.75;4.32;;;12.40;99.90;;;;;;5074683;28;20056;-73
2022/08/22 04:36:36;;;;;;;23.20;4.32;;;12.40;99.90;;;;;;5075274;28;20478;-75
2022/08/22 04:39:36;;;;;;;19.98;4.13;;;12.40;99.90;;;;;;5078080;28;20375;-73
2022/08/22 04:42:20;;;;;;;17.35;4.32;;;12.30;99.90;;;;;;5077527;28;20044;-76
2022/08/22 04:45:15;;;;;;;18.65;5.10;;;12.30;99.90;;;;;;5060864;28;20056;-73
2022/08/22 04:48:02;;;;;;;20.83;4.32;;;12.30;99.90;;;;;;5077901;28;20044;-73
2022/08/22 04:50:42;;;;;;;18.55;4.85;;;12.30;99.90;;;;;;5078450;28;20363;-74
2022/08/22 04:53:30;;;;;;;22.48;4.82;;;12.20;99.90;;;;;;5078179;28;20056;-74
2022/08/22 04:56:04;;;;;;;;;;;12.20;99.90;;;;;;5077116;28;20040;-76
2022/08/22 04:58:58;;;;;;;16.27;3.92;;;12.10;99.90;;;;;;5060818;28;19931;-74
2022/08/22 05:01:37;;;;;;;18.65;4.50;;;12.20;99.90;;;;;;5076951;28;20053;-74
2022/08/22 05:04:10;;;;;;;14.45;4.53;;;12.20;99.90;;;;;;5077696;28;20056;-73
2022/08/22 05:06:42;;;;;;;19.98;4.70;;;12.20;99.90;;;;;;5060208;28;20577;-75
2022/08/22 05:09:14;;;;;;;22.35;4.43;;;12.20;99.90;;;;;;5076727;28;20052;-73
2022/08/22 05:11:45;;;;;;;13.98;4.68;;;12.30;99.90;;;;;;5077559;28;20468;-74
2022/08/22 05:14:23;;;;;;;16.52;4.38;;;12.20;99.90;;;;;;5077396;28;20040;-74
2022/08/22 05:16:53;;;;;;;14.00;3.97;;;12.30;99.90;;;;;;5076456;28;20052;-73
2022/08/22 05:19:28;;;;;;;17.80;4.65;;;12.30;99.90;;;;;;5077272;28;20068;-73
2022/08/22 05:22:00;;;;;;;22.27;4.95;;;12.20;99.90;;;;;;5076576;28;20052;-75
2022/08/22 05:24:41;;;;;;;17.75;4.70;;;12.30;99.90;;;;;;5060092;28;20049;-73
2022/08/22 05:27:15;;;;;;;26.17;4.90;;;12.30;99.90;;;;;;5077263;28;20498;-74
2022/08/22 05:29:48;;;;;;;17.13;4.53;;;12.30;99.90;;;;;;5058576;28;20044;-73
2022/08/22 05:32:26;;;;;;;17.75;4.82;;;12.40;99.90;;;;;;5059756;28;20049;-73
2022/08/22 05:35:04;;;;;;;18.83;4.80;;;12.20;99.90;;;;;;5076320;28;20055;-73
2022/08/22 05:37:32;;;;;;;18.65;4.88;;;12.20;99.90;;;;;;5077153;28;20364;-73
2022/08/22 05:40:00;;;;;;;20.42;5.03;;;12.20;99.90;;;;;;5059390;28;20052;-74
2022/08/22 05:42:32;;;;;;;20.05;5.18;;;12.20;99.90;;;;;;5075925;28;20471;-75
2022/08/22 05:45:05;;;;;;;18.67;4.60;;;12.30;99.90;;;;;;5059771;28;20479;-75
2022/08/22 05:47:46;;;;;;;21.75;4.90;;;12.30;99.90;;;;;;5059452;28;20053;-75
2022/08/22 05:50:29;;;;;;;20.52;4.95;;;12.30;99.90;;;;;;5075850;28;20474;-73
2022/08/22 05:53:01;;;;;;;15.57;4.45;;;12.40;99.90;;;;;;5076971;28;20051;-76
2022/08/22 05:55:42;;;;;;;16.65;4.20;;;12.50;99.90;;;;;;5076035;28;20051;-73
2022/08/22 05:58:29;;;;;;;18.63;4.10;;;12.50;99.90;;;;;;5059308;28;20056;-76
2022/08/22 06:01:19;;;;;;;19.55;4.82;;;12.50;99.90;;;;;;5076542;28;20486;-74
2022/08/22 06:04:11;;;;;;;21.90;4.20;;;12.60;99.90;;;;;;5061002;28;20471;-73
2022/08/22 06:06:55;;;;;;;17.08;4.43;;;12.60;99.90;;;;;;5076898;28;20052;-73
2022/08/22 06:09:45;;;;;;;16.05;4.43;;;12.70;99.90;;;;;;5075556;28;20474;-74
2022/08/22 06:12:25;;;;;;;14.98;4.10;;;12.70;99.90;;;;;;5030560;28;20060;-74
2022/08/22 06:15:05;;;;;;;17.08;4.10;;;12.70;99.90;;;;;;5075516;28;20044;-74
2022/08/22 06:17:46;;;;;;;21.80;4.32;;;12.80;99.90;;;;;;5043707;28;20041;-74
2022/08/22 06:20:22;;;;;;;15.88;4.28;;;12.90;99.90;;;;;;5058655;28;20040;-76
2022/08/22 06:22:54;;;;;;;25.35;5.30;;;12.90;99.90;;;;;;5046138;28;20060;-76
2022/08/22 06:25:34;;;;;;;19.83;4.80;;;13.00;99.90;;;;;;5075898;28;20052;-73
2022/08/22 06:28:13;;;;;;;14.80;4.10;;;13.10;99.90;;;;;;5076194;28;20047;-74
2022/08/22 06:30:44;;;;;;;16.63;4.38;;;13.20;99.90;;;;;;5077518;28;20064;-74
2022/08/22 06:33:19;;;;;;;15.82;4.00;;;13.30;99.90;;;;;;5078578;28;20048;-74
2022/08/22 06:39:10;;;;;;;18.83;4.35;;;13.50;99.90;;;;;;5079005;28;20052;-74
2022/08/22 06:41:59;;;;;;;17.98;4.20;;;13.70;99.90;;;;;;5077322;28;20044;-75
2022/08/22 06:44:44;;;;;;;12.65;3.47;;;13.80;99.90;;;;;;5096133;28;20374;-73
2022/08/22 06:47:24;;;;;;;15.32;3.60;;;13.80;99.90;;;;;;5096557;28;20066;-75
2022/08/22 06:49:59;;;;;;;16.50;4.40;;;13.90;99.90;;;;;;5094756;28;20040;-74
2022/08/22 06:52:31;;;;;;;23.10;3.80;;;14.00;99.90;;;;;;5096061;28;20479;-75
2022/08/22 06:55:05;;;;;;;18.05;3.50;;;14.10;99.90;;;;;;5094865;28;20048;-73
2022/08/22 06:58:02;;;;;;;18.27;3.72;;;14.20;99.90;;;;;;5078353;28;20044;-74
2022/08/22 07:00:33;;;;;;;17.17;3.42;;;14.30;99.90;;;;;;5095830;28;20050;-79
2022/08/22 07:03:11;;;;;;;15.63;3.40;;;14.60;99.90;;;;;;5076245;28;20371;-73
2022/08/22 07:05:41;;;;;;;20.98;3.80;;;14.50;99.90;;;;;;5095389;28;20066;-73
2022/08/22 07:08:13;;;;;;;22.05;4.00;;;14.50;99.90;;;;;;5094410;28;20048;-74
2022/08/22 07:10:54;;;;;;;22.17;3.53;;;14.60;99.90;;;;;;5095271;28;20044;-73
2022/08/22 07:13:25;;;;;;;18.33;3.83;;;14.60;99.90;;;;;;5095204;28;20051;-75
2022/08/22 07:15:57;;;;;;;16.27;2.85;;;14.70;99.90;;;;;;5093824;28;20048;-76
2022/08/22 07:18:28;;;;;;;20.35;3.38;;;14.80;99.90;;;;;;5095137;28;20375;-74
2022/08/22 07:21:01;;;;;;;17.45;3.30;;;14.90;99.90;;;;;;5095102;28;20043;-76
2022/08/22 07:23:37;;;;;;;11.20;2.80;;;15.10;99.90;;;;;;5093992;28;20048;-75
2022/08/22 07:26:46;;;;;;;13.27;2.70;;;15.30;99.90;;;;;;5095487;28;20040;-75
2022/08/22 07:29:49;;;;;;;17.23;3.22;;;15.50;99.90;;;;;;5076133;28;20044;-75
2022/08/22 07:32:28;;;;;;;15.10;2.63;;;15.60;99.90;;;;;;5094569;28;20040;-75
2022/08/22 07:35:18;;;;;;;12.98;2.65;;;15.80;99.90;;;;;;5076883;28;20505;-74
2022/08/22 07:37:49;;;;;;;13.60;2.65;;;16.00;99.90;;;;;;5095064;28;20470;-75
2022/08/22 07:40:31;;;;;;;16.20;2.65;;;16.10;99.90;;;;;;5095022;28;20044;-76
2022/08/22 07:43:22;;;;;;;10.93;2.50;;;16.30;99.90;;;;;;5093974;28;20056;-73
2022/08/22 07:46:25;;;;;;;13.07;2.33;;;16.40;99.90;;;;;;5095227;28;20047;-74
2022/08/22 07:49:00;;;;;;;12.15;2.50;;;16.50;99.90;;;;;;5076840;28;20040;-74
2022/08/22 07:51:45;;;;;;;10.18;2.20;;;16.70;99.90;;;;;;5095248;28;20035;-75
2022/08/22 07:54:33;;;;;;;17.00;2.53;;;16.80;99.90;;;;;;5077864;28;20048;-74
2022/08/22 07:57:07;;;;;;;10.88;2.35;;;16.80;99.90;;;;;;5094159;28;20047;-75
2022/08/22 07:59:46;;;;;;;10.93;2.72;;;17.00;99.90;;;;;;5095351;28;20044;-75
2022/08/22 08:02:17;;;;;;;15.32;2.70;;;17.00;99.90;;;;;;5094287;28;20047;-74
2022/08/22 08:04:49;;;;;;;16.10;2.67;;;17.00;99.80;;;;;;5095197;28;20052;-74
2022/08/22 08:07:22;;;;;;;13.02;2.92;;;17.20;99.40;;;;;;5094775;28;20055;-75
2022/08/22 08:09:59;;;;;;;14.20;2.60;;;17.10;99.20;;;;;;5093635;28;20114;-74
2022/08/22 08:12:43;;;;;;;15.73;2.95;;;17.10;99.00;;;;;;5081334;28;20059;-74
2022/08/22 08:15:21;;;;;;;16.98;2.53;;;17.20;97.80;;;;;;5098303;28;20054;-75
2022/08/22 08:17:56;;;;;;;11.38;2.67;;;17.30;98.40;;;;;;5081517;28;20058;-75
2022/08/22 08:20:26;;;;;;;12.88;2.72;;;17.40;98.00;;;;;;5098936;28;20059;-75
2022/08/22 08:22:56;;;;;;;8.70;2.20;;;17.50;97.50;;;;;;5097640;28;20044;-75
2022/08/22 08:25:29;;;;;;;14.13;2.70;;;17.60;97.30;;;;;;5081524;28;20040;-74
2022/08/22 08:30:55;;;;;;;12.70;2.70;;;17.80;96.50;;;;;;5058068;28;20052;-75
2022/08/22 08:33:26;;;;;;;11.15;2.45;;;17.90;96.20;;;;;;5058483;28;20041;-76
2022/08/22 08:36:06;;;;;;;13.23;2.58;;;17.90;96.20;;;;;;5039794;28;20045;-76
2022/08/22 08:38:48;;;;;;;13.18;2.55;;;18.00;95.80;;;;;;5058884;28;20056;-75
2022/08/22 08:41:28;;;;;;;12.43;2.60;;;18.00;95.50;;;;;;5058651;28;20053;-75
2022/08/22 08:44:07;;;;;;;14.68;2.75;;;18.10;95.20;;;;;;5058136;28;20383;-75
2022/08/22 08:47:16;;;;;;;13.35;2.15;;;18.20;95.00;;;;;;5058137;28;20049;-76
2022/08/22 08:49:54;;;;;;;11.70;2.67;;;18.30;94.30;;;;;;5056562;28;20156;-75
2022/08/22 08:52:49;;;;;;;13.85;2.85;;;18.40;94.20;;;;;;5058309;28;20056;-75
2022/08/22 08:55:37;;;;;;;11.73;2.63;;;18.50;93.90;;;;;;5039325;28;20048;-75
2022/08/22 08:58:08;;;;;;;12.68;2.58;;;18.50;93.70;;;;;;5040783;28;20052;-77
2022/08/22 09:01:11;;;;;;;13.45;2.60;;;18.70;93.60;;;;;;5057410;28;20045;-76
2022/08/22 09:04:09;;;;;;;13.65;2.33;;;18.80;93.40;;;;;;5056640;28;20053;-76
2022/08/22 09:07:01;;;;;;;11.88;2.55;;;18.90;93.20;;;;;;5057521;28;20049;-76
2022/08/22 09:09:46;;;;;;;15.27;2.65;;;19.10;92.90;;;;;;5038501;28;20329;-75
2022/08/22 09:12:51;;;;;;;14.52;2.67;;;19.30;92.80;;;;;;5057398;28;20049;-75
2022/08/22 09:16:00;;;;;;;13.32;2.72;;;19.50;92.40;;;;;;5038814;28;20048;-74
2022/08/22 09:19:13;;;;;;;9.82;2.45;;;19.90;91.70;;;;;;5057419;28;20065;-75
2022/08/22 09:22:19;;;;;;;13.93;3.00;;;20.20;90.50;;;;;;5026909;28;20045;-75
2022/08/22 09:25:02;;;;;;;10.98;2.40;;;20.20;90.30;;;;;;5057098;28;20469;-75
2022/08/22 09:27:58;;;;;;;14.38;2.42;;;20.20;91.10;;;;;;5040548;28;20048;-76
2022/08/22 09:30:47;;;;;;;13.68;2.90;;;20.20;91.10;;;;;;5055001;28;20060;-82
2022/08/22 09:35:13;;;;;;;10.00;2.35;;;20.00;90.60;;;;;;4998853;28;20053;-81
2022/08/22 09:38:55;;;;;;;8.50;2.35;;;19.90;90.50;;;;;;5031241;28;20053;-73
2022/08/22 09:41:49;;;;;;;12.20;2.83;;;20.10;90.80;;;;;;5056026;28;20490;-73
2022/08/22 09:45:01;;;;;;;11.25;2.55;;;20.10;90.40;;;;;;5030181;28;20380;-72
2022/08/22 09:47:32;;;;;;;13.75;2.55;;;20.20;90.40;;;;;;5039037;28;20049;-71
2022/08/22 09:50:23;;;;;;;11.18;2.40;;;20.30;90.80;;;;;;5037979;28;20052;-72
2022/08/22 09:53:08;;;;;;;12.07;2.88;;;20.30;90.50;;;;;;5039796;28;20048;-72
2022/08/22 09:55:47;;;;;;;11.88;2.53;;;20.40;90.80;;;;;;5054302;28;20068;-73
2022/08/22 09:58:46;;;;;;;13.60;2.53;;;20.50;91.10;;;;;;5056216;28;20371;-72
2022/08/22 10:01:17;;;;;;;;;;;20.80;91.10;;;;;;5056769;28;20379;-75
2022/08/22 10:03:44;;;;;;;12.80;2.65;;;21.00;90.60;;;;;;5055028;28;19925;-74
2022/08/22 10:06:25;;;;;;;9.80;2.22;;;21.30;90.70;;;;;;5056118;28;20049;-75
2022/08/22 10:09:01;;;;;;;11.30;1.95;;;21.70;90.10;;;;;;5055051;28;20052;-74
2022/08/22 10:11:54;;;;;;;8.25;1.95;;;21.90;89.60;;;;;;5038407;28;20049;-82
2022/08/22 10:15:03;;;;;;;7.68;1.65;;;22.10;88.00;;;;;;5040277;28;20364;-83
2022/08/22 10:19:03;;;;;;;7.95;1.55;;;22.30;85.70;;;;;;4975446;28;20058;-82
2022/08/22 10:21:39;;;;;;;;;;;22.60;85.80;;;;;;4975548;28;20066;-73
2022/08/22 10:24:39;;;;;;;8.02;1.73;;;22.70;84.40;;;;;;4976149;28;19922;-73
2022/08/22 10:27:19;;;;;;;6.18;1.50;;;23.00;84.10;;;;;;4960048;28;20059;-73
2022/08/22 10:30:13;;;;;;;6.35;1.55;;;23.30;84.50;;;;;;4958319;28;20413;-73
2022/08/22 10:32:56;;;;;;;6.05;1.50;;;23.50;82.50;;;;;;4975065;28;20497;-73
2022/08/22 10:35:43;;;;;;;6.60;1.38;;;23.80;82.20;;;;;;5024487;28;20052;-74
2022/08/22 10:38:22;;;;;;;4.63;1.10;;;24.00;81.70;;;;;;5038212;28;20341;-73
2022/08/22 10:40:57;;;;;;;7.20;0.90;;;24.30;81.90;;;;;;5056092;28;20060;-74
2022/08/22 10:43:48;;;;;;;4.32;1.08;;;24.50;81.20;;;;;;5054641;28;20471;-73
2022/08/22 10:46:44;;;;;;;4.57;1.25;;;24.60;79.30;;;;;;5055543;28;20045;-73
2022/08/22 10:49:27;;;;;;;6.97;1.70;;;24.80;78.40;;;;;;5054465;28;20049;-73
2022/08/22 10:52:06;;;;;;;5.45;1.20;;;24.90;78.70;;;;;;5038467;28;20060;-73
2022/08/22 10:54:49;;;;;;;7.85;1.48;;;24.90;79.20;;;;;;5056049;28;20045;-73
2022/08/22 10:57:32;;;;;;;6.47;1.65;;;25.10;78.80;;;;;;5038016;28;20041;-73
2022/08/22 11:00:10;;;;;;;7.00;1.90;;;25.20;78.00;;;;;;5054653;28;20041;-73
2022/08/22 11:02:51;;;;;;;11.48;2.00;;;25.30;78.40;;;;;;5037222;28;20037;-73
2022/08/22 11:05:33;;;;;;;9.68;1.70;;;25.30;77.80;;;;;;5055367;28;20044;-72
2022/08/22 11:08:34;;;;;;;7.97;1.50;;;25.30;78.00;;;;;;5055514;28;20033;-72
2022/08/22 11:11:22;;;;;;;4.35;1.10;;;25.40;76.60;;;;;;5054947;28;20475;-73
2022/08/22 11:14:20;;;;;;;5.03;1.30;;;25.30;77.20;;;;;;5025345;28;20049;-72
2022/08/22 11:16:59;;;;;;;7.85;1.35;;;25.40;77.00;;;;;;5053969;28;20045;-73
2022/08/22 11:20:07;;;;;;;4.32;1.10;;;25.60;77.30;;;;;;5039684;28;20052;-72
2022/08/22 11:23:26;;;;;;;6.65;1.45;;;25.80;76.20;;;;;;5053864;28;20049;-73
2022/08/22 11:26:18;;;;;;;9.07;2.65;;;25.90;76.00;;;;;;5052171;28;20045;-73
2022/08/22 11:29:32;;;;;;;10.65;1.63;;;26.00;75.10;;;;;;5053732;28;20060;-72
2022/08/22 11:32:15;;;;;;;7.53;1.65;;;26.10;76.10;;;;;;5033478;28;20046;-73
2022/08/22 11:35:04;;;;;;;8.57;1.63;;;26.00;75.60;;;;;;5033668;28;20410;-73
2022/08/22 11:38:02;;;;;;;7.38;1.50;;;25.80;75.50;;;;;;5034744;28;20468;-73
2022/08/22 11:40:48;;;;;;;7.20;1.40;;;25.50;76.00;;;;;;5035138;28;20053;-72
2022/08/22 11:43:46;;;;;;;8.48;1.63;;;25.40;76.60;;;;;;5034019;28;20049;-71
2022/08/22 11:46:34;;;;;;;8.57;1.80;;;25.60;76.70;;;;;;5034525;28;20479;-75
2022/08/22 11:49:05;;;;;;;6.60;1.65;;;25.80;76.30;;;;;;5033164;28;20341;-73
2022/08/22 11:51:57;;;;;;;6.97;1.50;;;25.90;76.50;;;;;;5034258;28;20041;-72
2022/08/22 11:54:27;;;;;;;10.30;1.75;;;25.80;76.10;;;;;;5034380;28;20065;-81
2022/08/22 11:57:51;;;;;;;11.50;1.67;;;25.40;78.80;;;;;;5038509;28;20045;-81
2022/08/22 12:00:47;;;;;;;;;;;24.80;77.90;;;;;;5034793;28;20072;-77
2022/08/22 12:03:38;;;;;;;6.35;1.58;;;22.80;77.90;;;;;;5032262;28;20343;-78
2022/08/22 12:06:30;;;;;;;6.55;2.00;;;23.80;79.90;;;;;;5033851;28;20049;-78
2022/08/22 12:09:07;;;;;;;11.45;1.75;;;23.40;81.30;;;;;;5033102;28;20060;-77
2022/08/22 12:11:35;;;;;;;8.20;1.92;;;23.20;83.70;;;;;;5034073;28;20048;-77
2022/08/22 12:14:17;;;;;;;12.60;1.70;;;23.10;83.10;;;;;;5016787;28;20045;-77
2022/08/22 12:17:02;;;;;;;10.35;1.80;;;22.60;82.80;;;;;;5033178;28;20437;-78
2022/08/22 12:19:50;;;;;;;9.15;1.65;;;23.00;83.40;;;;;;5033596;28;20041;-77
2022/08/22 12:22:57;;;;;;;8.18;1.80;;;23.00;83.20;;;;;;5042082;28;20076;-77
2022/08/22 12:25:45;;;;;;;10.40;1.75;;;22.90;83.80;;;;;;5047052;28;20061;-76
2022/08/22 12:28:35;;;;;;;7.45;1.90;;;23.00;84.60;;;;;;5052733;28;20056;-76
2022/08/22 12:31:19;;;;;;;8.13;1.67;;;22.80;84.30;;;;;;5053739;28;20352;-77
2022/08/22 12:33:57;;;;;;;8.80;1.90;;;23.50;84.90;;;;;;5073986;28;20056;-77
2022/08/22 12:36:46;;;;;;;11.80;2.25;;;22.90;85.50;;;;;;5072502;28;20391;-78
2022/08/22 12:39:46;;;;;;;12.82;2.20;;;22.90;84.40;;;;;;5039698;28;20056;-82
2022/08/22 12:42:38;;;;;;;9.57;2.00;;;23.60;84.60;;;;;;5073244;28;20059;-76
2022/08/22 12:45:11;;;;;;;16.70;2.28;;;22.80;84.30;;;;;;5056594;28;20044;-75
2022/08/22 12:48:24;;;;;;;14.48;2.08;;;22.80;84.40;;;;;;5056967;28;20052;-75
2022/08/22 12:50:59;;;;;;;12.80;1.80;;;22.80;84.20;;;;;;5053183;28;20048;-81
2022/08/22 12:53:55;;;;;;;9.30;1.88;;;23.10;84.00;;;;;;5066984;28;20056;-81
2022/08/22 12:57:44;;;;;;;;;;;;;;;;;;;;;
2022/08/22 13:00:34;;;;;;;6.65;1.60;;;23.80;82.20;;;;;;5044184;28;20045;-79
2022/08/22 13:03:12;;;;;;;11.70;1.50;;;24.20;83.40;;;;;;5047874;28;20056;-77
2022/08/22 13:06:05;;;;;;;6.18;1.02;;;24.40;81.00;;;;;;5040660;28;20449;-79
2022/08/22 13:08:44;;;;;;;4.97;0.90;;;25.00;81.00;;;;;;5056772;28;20463;-77
2022/08/22 13:11:14;;;;;;;5.35;1.15;;;25.90;80.60;;;;;;5049127;28;20049;-77
2022/08/22 13:13:54;;;;;;;3.80;0.93;;;26.00;79.90;;;;;;5056197;28;20045;-77
2022/08/22 13:16:33;;;;;;;4.95;0.85;;;26.30;78.20;;;;;;5069327;28;20367;-75
2022/08/22 13:19:08;;;;;;;4.38;1.08;;;26.20;77.10;;;;;;5077190;28;20048;-74
2022/08/22 13:22:03;;;;;;;6.57;1.27;;;26.50;76.40;;;;;;5058645;28;20052;-78
2022/08/22 13:25:06;;;;;;;5.50;1.10;;;26.50;74.50;;;;;;5059598;28;20475;-81
2022/08/22 13:27:49;;;;;;;4.93;1.30;;;26.30;76.00;;;;;;5065126;28;20067;-80
2022/08/22 13:30:35;;;;;;;4.53;1.10;;;25.70;75.30;;;;;;5076000;28;20056;-80
2022/08/22 13:33:32;;;;;;;5.70;1.00;;;28.00;77.50;;;;;;5075878;28;20079;-78
2022/08/22 13:36:06;;;;;;;6.35;0.90;;;27.00;77.10;;;;;;5075906;28;20052;-73
2022/08/22 13:39:07;;;;;;;6.70;1.02;;;24.80;77.70;;;;;;5077197;28;20359;-73
2022/08/22 13:41:47;;;;;;;4.10;1.05;;;24.50;77.70;;;;;;5075888;28;20379;-72
2022/08/22 13:44:25;;;;;;;5.75;1.15;;;24.30;78.70;;;;;;5077189;28;20474;-82
2022/08/22 13:47:02;;;;;;;5.80;1.05;;;24.20;79.00;;;;;;5076666;28;20471;-72
2022/08/22 13:50:03;;;;;;;7.93;1.30;;;24.20;79.40;;;;;;5057968;28;20048;-74
2022/08/22 13:52:35;;;;;;;7.93;1.50;;;24.10;79.60;;;;;;5076400;28;20323;-80
2022/08/22 13:55:18;;;;;;;10.25;1.67;;;24.50;80.20;;;;;;5075595;28;20045;-73
2022/08/22 13:57:51;;;;;;;5.40;1.70;;;24.00;79.70;;;;;;5076727;28;20041;-79
2022/08/22 14:00:19;;;;;;;14.82;10.18;;;24.20;80.80;;;;;;5055558;28;20052;-75
2022/08/22 14:03:02;;;;;;;8.30;3.45;;;24.00;81.00;;;;;;5054072;28;20494;-77
2022/08/22 14:05:46;;;;;;;8.52;2.13;;;23.90;80.40;;;;;;5056824;28;20360;-78
2022/08/22 14:08:27;;;;;;;6.10;1.85;;;23.80;81.60;;;;;;5055545;28;20052;-77
2022/08/22 14:11:20;;;;;;;10.57;3.13;;;23.80;81.30;;;;;;5056959;28;20048;-76
2022/08/22 14:14:02;;;;;;;6.15;1.88;;;23.70;81.60;;;;;;5055708;28;20056;-77
2022/08/22 14:16:44;;;;;;;7.15;1.70;;;23.70;82.00;;;;;;5055256;28;20041;-77
2022/08/22 14:19:23;;;;;;;7.28;1.95;;;23.60;82.00;;;;;;5055486;28;20048;-76
2022/08/22 14:22:07;;;;;;;6.72;1.77;;;23.60;82.10;;;;;;5055374;28;20490;-77